Latest Weather Observations for Bendigo

IDV60801

Issued at 11:22 pm EST Wednesday 12 August 2020 (issued every 10 minutes, with the page automatically refreshed every 10 minutes)

About weather observations | Map of weather stations | Latest weather observations for VIC | Other Formats
Station Details ID: 081123 Name: BENDIGO AIRPORT Lat: -36.74 Lon: 144.33 Height: 209.17 m
Data from the previous 72 hours. | See also: Recent months at Bendigo
Date/Time
EST
Temp
°C
App
Temp
°C
Dew
Point
°C
Rel
Hum
%
Delta-T
°C
Wind Press
QNH
hPa
Press
MSL
hPa
Rain since
9am
mm
Dir  Spd
km/h
Gust
km/h
Spd
kts
Gust
kts
12/11:06pm 10.7 9.4 9.9 95 0.4 NE 7 9 4 5 1009.6 1009.9 2.4
12/11:00pm 10.7 9.4 9.9 95 0.4 NNE 7 7 4 4 1009.6 1009.9 2.4
12/10:44pm 10.9 9.3 10.1 95 0.4 N 9 13 5 7 1009.8 1010.1 2.0
12/10:30pm 11.1 9.1 10.2 94 0.5 N 11 15 6 8 1009.9 1010.2 1.4
12/10:27pm 11.1 9.5 10.2 94 0.5 NNW 9 15 5 8 1010.0 1010.3 1.0
12/10:19pm 11.1 9.4 10.0 93 0.6 NW 9 17 5 9 1010.0 1010.3 0.4
12/10:00pm 11.1 9.4 10.0 93 0.6 ENE 9 15 5 8 1009.4 1009.7 0.0
12/09:30pm 11.1 8.7 9.9 92 0.6 ENE 13 19 7 10 1009.2 1009.5 0.0
12/09:00pm 11.1 9.1 10.0 93 0.6 ENE 11 15 6 8 1009.4 1009.7 0.0
12/08:30pm 10.9 8.4 9.8 93 0.6 ENE 13 17 7 9 1009.3 1009.6 0.0
12/08:00pm 10.8 8.7 9.9 94 0.5 E 11 15 6 8 1009.0 1009.3 0.0
12/07:30pm 10.8 9.4 9.7 93 0.6 E 7 11 4 6 1008.9 1009.2 0.0
12/07:00pm 11.0 9.3 9.8 92 0.6 ENE 9 15 5 8 1008.7 1009.0 0.0
12/06:59pm 11.0 9.3 9.8 92 0.6 ENE 9 15 5 8 1008.7 1009.0 0.0
12/06:30pm 11.5 9.1 10.1 91 0.7 NE 13 20 7 11 1008.2 1008.5 0.0
12/06:00pm 11.9 9.5 10.1 89 0.9 NE 13 17 7 9 1008.0 1008.3 0.0
12/05:58pm 11.9 9.5 10.1 89 0.9 NE 13 17 7 9 1008.0 1008.3 0.0
12/05:49pm 12.0 9.3 10.2 89 0.9 NE 15 20 8 11 1007.8 1008.1 0.0
12/05:30pm 12.1 9.4 10.3 89 0.9 NE 15 22 8 12 1007.7 1008.0 0.0
12/05:00pm 12.4 10.1 10.3 87 1.1 NE 13 19 7 10 1007.6 1007.9 0.0
12/04:30pm 12.8 9.2 10.0 83 1.5 NE 19 26 10 14 1007.6 1007.9 0.0
12/04:00pm 13.3 10.1 10.1 81 1.7 NE 17 24 9 13 1007.6 1007.9 0.0
12/03:55pm 13.5 10.3 10.1 80 1.8 NE 17 24 9 13 1007.6 1007.9 0.0
12/03:44pm 13.8 11.1 10.4 80 1.8 NE 15 20 8 11 1007.6 1007.9 0.0
12/03:30pm 13.3 10.4 11.0 86 1.2 NE 17 22 9 12 1007.7 1008.0 0.0
12/03:01pm 12.5 10.1 10.2 86 1.2 NE 13 17 7 9 1007.9 1008.2 0.0
12/03:00pm 12.5 10.1 10.2 86 1.2 NE 13 17 7 9 1007.9 1008.2 0.0
12/02:36pm 12.9 11.0 10.6 86 1.2 NE 11 15 6 8 1007.8 1008.1 0.0
12/02:30pm 12.7 10.8 10.4 86 1.2 NE 11 15 6 8 1007.9 1008.2 0.0
12/02:00pm 12.1 9.7 10.0 87 1.1 NE 13 15 7 8 1008.0 1008.3 0.0
12/01:30pm 12.1 9.4 10.2 88 1.0 NE 15 20 8 11 1008.3 1008.6 0.0
12/01:00pm 11.7 8.8 9.8 88 1.0 ENE 15 19 8 10 1008.6 1008.9 0.0
12/12:30pm 11.5 9.0 9.8 89 0.9 ENE 13 19 7 10 1009.1 1009.4 0.0
12/12:00pm 11.2 8.6 9.5 89 0.9 NE 13 20 7 11 1009.5 1009.8 0.0
12/11:30am 11.0 8.1 9.6 91 0.7 NNE 15 20 8 11 1009.7 1010.0 0.0
12/11:00am 10.9 8.4 9.8 93 0.6 NNE 13 20 7 11 1009.9 1010.2 0.0
12/10:30am 10.4 7.0 9.3 93 0.6 NE 17 22 9 12 1010.3 1010.7 0.0
12/10:00am 9.9 6.9 9.1 95 0.4 NE 15 20 8 11 1010.5 1010.9 0.0
12/09:30am 9.5 6.0 8.9 96 0.3 NNE 17 22 9 12 1010.9 1011.3 0.0
12/09:00am 9.3 5.8 8.8 97 0.2 NNE 17 22 9 12 1011.0 1011.4 6.6
12/08:30am 9.2 6.1 8.9 98 0.1 NE 15 24 8 13 1010.9 1011.3 6.6
12/08:00am 9.0 6.2 8.7 98 0.1 NE 13 17 7 9 1010.9 1011.3 6.6
12/07:30am 8.9 5.7 8.6 98 0.1 NNE 15 20 8 11 1011.0 1011.4 6.0
12/07:00am 8.8 5.6 8.5 98 0.1 NE 15 20 8 11 1010.9 1011.3 6.0
12/06:30am 8.8 6.0 8.4 97 0.2 NE 13 19 7 10 1010.9 1011.3 5.8
12/06:11am 8.8 6.0 8.4 97 0.2 NE 13 17 7 9 1010.9 1011.3 5.8
12/06:00am 8.8 6.3 8.4 97 0.2 NNE 11 15 6 8 1011.0 1011.4 5.4
12/05:30am 8.8 6.3 8.4 97 0.2 NNE 11 15 6 8 1011.0 1011.4 4.6
12/05:04am 8.8 6.3 8.2 96 0.3 NNE 11 15 6 8 1010.9 1011.3 3.2
12/05:00am 8.8 6.3 8.2 96 0.3 NNE 11 17 6 9 1010.9 1011.3 3.2
12/04:30am 8.8 5.9 8.2 96 0.3 NNE 13 17 7 9 1011.0 1011.4 2.8
12/04:00am 8.8 5.9 8.0 95 0.4 NNE 13 17 7 9 1011.2 1011.6 2.0
12/03:30am 8.7 4.9 7.6 93 0.5 NNE 17 24 9 13 1011.3 1011.7 1.4
12/03:25am 8.7 5.3 7.6 93 0.5 NNE 15 24 8 13 1011.3 1011.7 1.4
12/03:15am 8.7 5.7 7.5 92 0.6 NNE 13 17 7 9 1011.2 1011.6 1.4
12/03:13am 8.7 5.7 7.5 92 0.6 NNE 13 17 7 9 1011.3 1011.7 1.4
12/03:00am 8.8 6.1 7.4 91 0.7 NNE 11 17 6 9 1011.2 1011.6 0.6
12/02:52am 8.8 5.7 7.4 91 0.7 NNE 13 17 7 9 1011.3 1011.7 0.6
12/02:38am 8.9 5.4 7.2 89 0.8 NE 15 20 8 11 1011.3 1011.7 0.6
12/02:30am 9.1 6.0 7.2 88 0.9 NNE 13 17 7 9 1011.5 1011.9 0.0
12/02:00am 9.1 5.6 7.1 87 1.0 NNE 15 20 8 11 1012.0 1012.3 0.0
12/01:30am 9.3 5.7 6.9 85 1.1 NNE 15 26 8 14 1012.2 1012.5 0.0
12/01:00am 9.3 5.7 6.9 85 1.1 NNE 15 20 8 11 1012.5 1012.8 0.0
12/12:30am 9.5 5.5 6.8 83 1.3 NNE 17 24 9 13 1012.7 1013.0 0.0
12/12:00am 9.5 5.9 6.6 82 1.4 NNE 15 24 8 13 1013.0 1013.3 0.0
 
Date/Time
EST
Temp
°C
App
Temp
°C
Dew
Point
°C
Rel
Hum
%
Delta-T
°C
Wind Press
QNH
hPa
Press
MSL
hPa
Rain since
9am
mm
Dir  Spd
km/h
Gust
km/h
Spd
kts
Gust
kts
11/11:30pm 9.6 5.6 6.5 81 1.5 NE 17 22 9 12 1013.1 1013.4 0.0
11/11:00pm 9.6 5.1 6.3 80 1.5 NE 19 26 10 14 1013.4 1013.7 0.0
11/10:30pm 9.7 5.2 6.2 79 1.6 NE 19 28 10 15 1013.7 1014.0 0.0
11/10:00pm 9.7 5.0 6.1 78 1.7 NE 20 28 11 15 1013.9 1014.2 0.0
11/09:30pm 9.8 5.7 6.0 77 1.8 NE 17 22 9 12 1014.0 1014.3 0.0
11/09:00pm 9.7 5.5 5.9 77 1.8 NE 17 24 9 13 1014.3 1014.7 0.0
11/08:30pm 9.8 5.7 6.0 77 1.8 NE 17 24 9 13 1014.3 1014.7 0.0
11/08:00pm 10.0 5.9 6.0 76 1.9 NE 17 20 9 11 1014.5 1014.9 0.0
11/07:30pm 9.9 5.8 6.1 77 1.8 ENE 17 26 9 14 1014.2 1014.6 0.0
11/07:00pm 10.0 6.3 6.2 77 1.8 ENE 15 20 8 11 1014.1 1014.4 0.0
11/06:30pm 10.0 6.6 6.0 76 1.9 ENE 13 24 7 13 1014.3 1014.7 0.0
11/06:00pm 10.2 6.1 6.0 75 2.0 NE 17 20 9 11 1014.2 1014.6 0.0
11/05:30pm 10.6 6.8 6.0 73 2.2 NE 15 20 8 11 1014.1 1014.4 0.0
11/05:00pm 10.9 6.8 6.1 72 2.3 NE 17 24 9 13 1014.2 1014.6 0.0
11/04:30pm 10.9 6.7 5.7 70 2.4 NE 17 24 9 13 1014.0 1014.3 0.0
11/04:00pm 11.1 6.3 5.4 68 2.6 NE 20 28 11 15 1014.3 1014.7 0.0
11/03:30pm 11.3 6.6 5.2 66 2.8 NE 19 24 10 13 1014.7 1015.1 0.0
11/03:00pm 11.7 7.4 5.1 64 3.1 NNE 17 26 9 14 1015.0 1015.4 0.0
11/02:30pm 12.1 7.2 5.3 63 3.2 NNE 20 26 11 14 1015.3 1015.7 0.0
11/02:00pm 12.2 7.2 4.7 60 3.5 NE 20 33 11 18 1015.8 1016.2 0.0
11/01:30pm 12.5 8.7 5.7 63 3.2 NE 15 22 8 12 1016.0 1016.4 0.0
11/01:00pm 12.2 6.9 4.9 61 3.4 NE 22 30 12 16 1016.7 1017.1 0.0
11/12:30pm 11.7 7.1 5.8 67 2.8 NNE 19 26 10 14 1017.7 1018.0 0.0
11/12:00pm 10.9 6.2 5.2 68 2.6 NNE 19 24 10 13 1017.9 1018.2 0.0
11/11:30am 10.3 5.3 4.5 67 2.6 NNE 20 32 11 17 1018.5 1018.9 0.0
11/11:00am 9.6 4.8 4.6 71 2.2 NNE 19 26 10 14 1018.8 1019.2 0.0
11/10:30am 8.8 5.2 5.0 77 1.7 NNE 13 20 7 11 1019.0 1019.4 0.0
11/10:00am 7.7 4.5 5.0 83 1.2 NE 11 17 6 9 1019.1 1019.5 0.0
11/09:30am 6.6 3.9 5.4 92 0.5 E 9 17 5 9 1018.9 1019.3 0.0
11/09:00am 5.8 3.5 4.6 92 0.5 E 6 9 3 5 1019.1 1019.5 0.4
11/08:30am 5.2 2.3 4.5 95 0.3 E 9 13 5 7 1019.0 1019.4 0.4
11/08:00am 4.5 1.5 4.1 97 0.2 E 9 17 5 9 1019.0 1019.4 0.4
11/07:30am 2.9 0.0 2.5 97 0.2 SE 7 9 4 5 1019.5 1019.9 0.2
11/07:00am 2.1 -1.4 1.5 96 0.2 SSE 9 9 5 5 1019.1 1019.5 0.2
11/06:30am 3.1 0.2 2.7 97 0.2 ESE 7 9 4 5 1018.8 1019.2 0.2
11/06:00am 2.3 -1.1 1.9 97 0.2 SE 9 11 5 6 1018.4 1018.8 0.2
11/05:30am 2.1 -1.7 1.7 97 0.2 SE 11 13 6 7 1018.3 1018.7 0.2
11/05:00am 2.3 -1.1 1.9 97 0.2 SSE 9 11 5 6 1018.7 1019.1 0.2
11/04:30am 1.7 -2.2 1.3 97 0.2 SE 11 11 6 6 1018.8 1019.2 0.2
11/04:00am 1.3 -2.3 0.9 97 0.2 SSE 9 9 5 5 1019.0 1019.4 0.2
11/03:30am 1.7 -1.4 1.3 97 0.2 S 7 11 4 6 1019.5 1019.9 0.2
11/03:19am 1.7 -2.2 1.3 97 0.2 SSE 11 13 6 7 1019.3 1019.7 0.2
11/03:06am 1.2 -1.8 0.8 97 0.2 S 6 9 3 5 1019.3 1019.7 0.2
11/03:04am 1.2 -2.0 0.8 97 0.2 S 7 9 4 5 1019.3 1019.7 0.2
11/03:00am 0.8 -2.5 0.4 97 0.1 SSE 7 9 4 5 1019.3 1019.7 0.2
11/02:30am 1.1 -2.1 0.5 96 0.2 S 7 9 4 5 1019.4 1019.8 0.2
11/02:22am 1.2 -1.8 0.6 96 0.2 S 6 7 3 4 1019.5 1019.9 0.2
11/02:00am 1.6 -1.5 1.2 97 0.2 S 7 9 4 5 1019.7 1020.1 0.2
11/01:30am 1.1 -2.1 0.5 96 0.2 S 7 9 4 5 1019.9 1020.3 0.2
11/01:29am 1.1 -2.1 0.5 96 0.2 S 7 9 4 5 1019.9 1020.3 0.2
11/01:08am 1.7 -1.4 1.1 96 0.2 S 7 9 4 5 1019.8 1020.2 0.2
11/01:00am 2.1 -1.0 1.5 96 0.2 S 7 9 4 5 1019.7 1020.1 0.2
11/12:44am 1.9 -1.0 1.3 96 0.2 S 6 7 3 4 1019.8 1020.2 0.2
11/12:30am 2.1 -0.4 1.5 96 0.2 S 4 7 2 4 1019.8 1020.2 0.2
11/12:00am 2.2 -0.7 1.6 96 0.2 SSE 6 9 3 5 1019.7 1020.1 0.2
 
Date/Time
EST
Temp
°C
App
Temp
°C
Dew
Point
°C
Rel
Hum
%
Delta-T
°C
Wind Press
QNH
hPa
Press
MSL
hPa
Rain since
9am
mm
Dir  Spd
km/h
Gust
km/h
Spd
kts
Gust
kts
10/11:59pm 2.2 -0.7 1.6 96 0.2 SSE 6 9 3 5 1019.7 1020.1 0.2
10/11:30pm 2.8 -0.2 2.2 96 0.2 S 7 9 4 5 1019.9 1020.3 0.2
10/11:00pm 2.3 -0.8 1.6 95 0.3 S 7 9 4 5 1019.9 1020.3 0.2
10/10:30pm 2.8 -0.6 2.1 95 0.3 SSE 9 9 5 5 1020.1 1020.5 0.2
10/10:25pm 2.7 -0.7 2.0 95 0.3 SSE 9 9 5 5 1020.2 1020.6 0.2
10/10:00pm 3.7 2.2 3.0 95 0.3 CALM 0 0 0 0 1020.3 1020.7 0.2
10/09:59pm 3.6 2.1 2.9 95 0.3 CALM 0 0 0 0 1020.3 1020.7 0.2
10/09:36pm 3.7 2.2 2.8 94 0.4 CALM 0 0 0 0 1020.2 1020.6 0.2
10/09:30pm 3.2 1.6 2.3 94 0.4 CALM 0 4 0 2 1020.1 1020.5 0.2
10/09:00pm 4.1 2.6 3.1 93 0.4 CALM 0 0 0 0 1020.0 1020.4 0.2
10/08:30pm 4.9 3.5 3.7 92 0.5 CALM 0 0 0 0 1020.1 1020.5 0.2
10/08:00pm 5.6 3.5 4.1 90 0.6 ESE 4 6 2 3 1019.8 1020.2 0.2
10/07:30pm 6.1 4.8 4.1 87 0.9 CALM 0 0 0 0 1019.9 1020.3 0.2
10/07:00pm 7.7 6.6 5.2 84 1.1 CALM 0 0 0 0 1019.6 1020.0 0.2
10/06:30pm 7.8 6.5 4.0 77 1.7 CALM 0 0 0 0 1019.3 1019.7 0.2
10/06:00pm 10.7 7.8 4.8 67 2.7 NNE 9 13 5 7 1019.0 1019.4 0.2
10/05:30pm 12.5 9.2 4.7 59 3.6 NNE 11 13 6 7 1018.8 1019.2 0.2
10/05:00pm 14.5 12.1 4.2 50 4.8 N 6 11 3 6 1018.7 1019.1 0.2
10/04:30pm 15.1 12.5 4.2 48 5.1 NW 7 11 4 6 1019.0 1019.4 0.2
10/04:00pm 15.4 12.6 5.3 51 4.8 NW 9 13 5 7 1019.0 1019.4 0.2
10/03:30pm 15.3 11.6 4.4 48 5.1 NNW 13 17 7 9 1019.0 1019.4 0.2
10/03:00pm 15.6 13.2 4.3 47 5.3 SSW 6 11 3 6 1019.5 1019.9 0.2
10/02:30pm 15.2 12.4 3.0 44 5.6 WSW 7 13 4 7 1019.7 1020.1 0.2
10/02:00pm 15.5 12.6 4.8 49 5.1 NW 9 13 5 7 1020.0 1020.4 0.2
10/01:30pm 15.0 11.7 4.7 50 4.9 NNW 11 17 6 9 1020.1 1020.5 0.2
10/01:00pm 14.9 12.3 4.3 49 4.9 NNW 7 15 4 8 1020.3 1020.7 0.2
10/12:30pm 14.4 11.2 2.9 46 5.2 N 9 13 5 7 1020.8 1021.2 0.2
10/12:00pm 14.2 11.5 3.7 49 4.8 ENE 7 15 4 8 1021.0 1021.4 0.0
10/11:30am 13.7 10.8 4.8 55 4.2 E 9 13 5 7 1021.6 1022.0 0.0
10/11:00am 12.9 9.5 4.1 55 4.0 E 11 17 6 9 1022.0 1022.3 0.0
10/10:30am 12.5 10.0 4.7 59 3.6 ESE 7 11 4 6 1022.1 1022.4 0.0
10/10:00am 11.2 7.9 4.7 64 3.0 ESE 11 15 6 8 1021.9 1022.2 0.0
10/09:30am 10.0 6.7 4.8 70 2.4 SE 11 15 6 8 1021.9 1022.2 0.0
10/09:00am 8.8 4.8 5.0 77 1.7 SSE 15 19 8 10 1021.6 1022.0 0.0
10/08:30am 7.4 3.0 4.5 82 1.3 SSE 17 22 9 12 1021.4 1021.8 0.0
10/08:00am 6.3 1.4 4.3 87 0.9 SSE 19 24 10 13 1021.3 1021.7 0.0
10/07:30am 5.4 0.5 3.9 90 0.6 SSE 19 24 10 13 1021.0 1021.4 0.0
10/07:00am 5.4 0.2 3.7 89 0.7 SSE 20 26 11 14 1020.7 1021.1 0.0
10/06:30am 5.6 0.7 3.9 89 0.7 SSE 19 24 10 13 1020.4 1020.8 0.0
10/06:00am 5.6 0.7 3.9 89 0.7 SSE 19 24 10 13 1020.1 1020.5 0.0
10/05:30am 5.9 0.8 4.1 88 0.8 SSE 20 28 11 15 1019.8 1020.2 0.0
10/05:00am 5.9 0.8 3.9 87 0.9 SSE 20 24 11 13 1019.9 1020.3 0.0
10/04:30am 6.1 1.2 4.1 87 0.9 SSE 19 24 10 13 1019.7 1020.1 0.0
10/04:00am 6.2 1.1 4.0 86 0.9 SSE 20 26 11 14 1019.4 1019.8 0.0
10/03:30am 6.3 1.4 4.1 86 1.0 SSE 19 24 10 13 1019.4 1019.8 0.0
10/03:00am 6.4 1.5 4.1 85 1.0 SSE 19 20 10 11 1019.5 1019.9 0.0
10/02:30am 6.7 1.9 4.4 85 1.0 SSE 19 24 10 13 1019.4 1019.8 0.0
10/02:00am 6.7 1.8 4.2 84 1.1 SSE 19 22 10 12 1019.3 1019.7 0.0
10/01:30am 7.0 2.6 4.5 84 1.1 SSE 17 20 9 11 1019.1 1019.5 0.0
10/01:00am 7.4 3.0 4.7 83 1.2 SSE 17 24 9 13 1018.9 1019.3 0.0
10/12:30am 7.4 2.6 4.7 83 1.2 SSE 19 26 10 14 1018.8 1019.2 0.0
10/12:00am 7.5 3.1 4.8 83 1.2 SSE 17 22 9 12 1018.9 1019.3 0.0
 
Date/Time
EST
Temp
°C
App
Temp
°C
Dew
Point
°C
Rel
Hum
%
Delta-T
°C
Wind Press
QNH
hPa
Press
MSL
hPa
Rain since
9am
mm
Dir  Spd
km/h
Gust
km/h
Spd
kts
Gust
kts
09/11:30pm 7.9 3.6 5.2 83 1.2 SSE 17 20 9 11 1019.0 1019.4 0.0

Other formats

Comma delimited format used in spreadsheet applications
http://www.bom.gov.au/fwo/IDV60801/IDV60801.94855.axf

JavaScript Object Notation format (JSON) in row-major order
http://www.bom.gov.au/fwo/IDV60801/IDV60801.94855.json

Data quality

Most of these data are generated automatically and are frequently updated. Quality checks on data are not normally performed. It is possible for incorrect values to appear. Refer to information at About Latest Weather Observations and please check the disclaimer before using these data.